Ghadamis, Libya
Current Conditions -  °F | °C
As of 1:00 AM on Sunday 21 Dec 2014 (Local Time) from DAUZ Reporting Station
Clear Clear  
Wind Chill: 42°   Ceiling: Unl
Heat Index: 46°   Visibility: 6mi
Dew Point: 32°   Wind: 9mph
Humidity: 57%   Direction: 40°NE
Pressure: 30.36"   Gusts: NA
Location:  30.13°N, 9.5°E
Report Text: DAUZ 202200Z 04008KT CAVOK 08/00 Q1028
Loading
Personal Weather Stations






























Interactive Weather Map New forecast layout! Learn more

10-Day Weather Forecast

Advertisements
Track Severe Weather on mobile